createdAt,value
2019-02-16T00:02:33.237Z,2.70
2019-02-16T00:05:07.561Z,2.70
2019-02-16T00:07:37.982Z,2.70
2019-02-16T00:10:08.005Z,2.70
2019-02-16T00:12:37.893Z,2.70
2019-02-16T00:15:07.127Z,2.70
2019-02-16T00:17:36.808Z,2.70
2019-02-16T00:20:06.798Z,2.60
2019-02-16T00:22:38.602Z,2.60
2019-02-16T00:25:11.040Z,2.70
2019-02-16T00:27:52.652Z,2.60
2019-02-16T00:30:25.267Z,2.70
2019-02-16T00:32:56.649Z,2.70
2019-02-16T00:35:26.928Z,2.80
2019-02-16T00:38:01.322Z,2.80
2019-02-16T00:40:33.266Z,2.70
2019-02-16T00:43:05.026Z,2.70
2019-02-16T00:45:35.923Z,2.70
2019-02-16T00:48:08.415Z,2.80
2019-02-16T00:50:39.216Z,2.80
2019-02-16T00:53:10.164Z,2.80
2019-02-16T00:55:42.947Z,2.80
2019-02-16T00:58:15.159Z,2.80
2019-02-16T01:00:46.625Z,2.80
2019-02-16T01:03:21.577Z,2.80
2019-02-16T01:05:52.561Z,2.90
2019-02-16T01:08:25.591Z,2.80
2019-02-16T01:10:55.695Z,2.90
2019-02-16T01:13:27.149Z,3.00
2019-02-16T01:15:59.112Z,3.00
2019-02-16T01:18:29.717Z,3.10
2019-02-16T01:20:59.492Z,3.00
2019-02-16T01:23:29.236Z,3.10
2019-02-16T01:25:59.337Z,3.10
2019-02-16T01:28:31.437Z,3.20
2019-02-16T01:31:03.227Z,3.10
2019-02-16T01:33:34.802Z,3.20
2019-02-16T01:36:08.385Z,3.20
2019-02-16T01:38:43.136Z,3.20
2019-02-16T01:41:14.225Z,3.20
2019-02-16T01:43:45.033Z,3.10
2019-02-16T01:46:16.456Z,3.10
2019-02-16T01:48:48.905Z,3.00
2019-02-16T01:51:21.073Z,3.10
2019-02-16T01:53:53.649Z,3.10
2019-02-16T01:56:25.056Z,3.10
2019-02-16T01:58:55.917Z,3.10
2019-02-16T02:01:28.244Z,3.00
2019-02-16T02:03:59.021Z,3.00
2019-02-16T02:06:30.077Z,3.00
2019-02-16T02:09:00.072Z,2.90
2019-02-16T02:11:32.489Z,3.10
2019-02-16T02:14:04.301Z,3.20
2019-02-16T02:16:35.673Z,3.10
2019-02-16T02:19:11.470Z,3.10
2019-02-16T02:21:45.210Z,3.20
2019-02-16T02:24:16.723Z,3.30
2019-02-16T02:26:46.687Z,3.20
2019-02-16T02:29:15.888Z,3.30
2019-02-16T02:31:48.137Z,3.30
2019-02-16T02:34:19.518Z,3.30
2019-02-16T02:36:49.965Z,3.30
2019-02-16T02:39:19.140Z,3.30
2019-02-16T02:41:50.826Z,3.40
2019-02-16T02:44:19.848Z,3.30
2019-02-16T02:46:49.844Z,3.40
2019-02-16T02:49:19.206Z,3.40
2019-02-16T02:51:52.241Z,3.50
2019-02-16T02:54:20.428Z,3.40
2019-02-16T02:56:50.732Z,3.40
2019-02-16T02:59:21.057Z,3.40
2019-02-16T03:01:50.337Z,3.50
2019-02-16T03:04:20.129Z,3.50
2019-02-16T03:06:50.733Z,3.50
2019-02-16T03:09:24.983Z,3.50
2019-02-16T03:11:57.438Z,3.60
2019-02-16T03:14:28.033Z,3.70
2019-02-16T03:16:57.525Z,3.80
2019-02-16T03:19:32.490Z,3.70
2019-02-16T03:22:05.367Z,3.70
2019-02-16T03:24:40.871Z,3.80
2019-02-16T03:27:16.240Z,3.80
2019-02-16T03:30:07.344Z,3.70
2019-02-16T03:33:06.998Z,3.60
2019-02-16T03:35:41.726Z,3.70
2019-02-16T03:38:35.980Z,3.70
2019-02-16T03:41:09.129Z,3.60
2019-02-16T03:43:40.318Z,3.50
2019-02-16T03:46:13.861Z,3.60
2019-02-16T03:48:45.674Z,3.50
2019-02-16T03:51:18.414Z,3.50
2019-02-16T03:53:52.933Z,3.50
2019-02-16T03:56:23.945Z,3.50
2019-02-16T03:58:56.833Z,3.50
2019-02-16T04:01:28.173Z,3.50
2019-02-16T04:04:01.640Z,3.40
2019-02-16T04:06:33.069Z,3.40
2019-02-16T04:09:06.364Z,3.50
2019-02-16T04:11:41.065Z,3.50
2019-02-16T04:14:11.663Z,3.50
2019-02-16T04:16:41.644Z,3.40
2019-02-16T04:19:11.887Z,3.30
2019-02-16T04:21:42.833Z,3.40
2019-02-16T04:24:12.711Z,3.40
2019-02-16T04:26:43.090Z,3.30
2019-02-16T04:29:14.692Z,3.20
2019-02-16T04:31:45.454Z,3.20
2019-02-16T04:34:18.187Z,3.40
2019-02-16T04:36:53.435Z,3.40
2019-02-16T04:39:24.460Z,3.30
2019-02-16T04:41:56.176Z,3.40
2019-02-16T04:44:26.033Z,3.40
2019-02-16T04:46:57.841Z,3.40
2019-02-16T04:49:27.601Z,3.30
2019-02-16T04:51:59.945Z,3.30
2019-02-16T04:54:31.447Z,3.30
2019-02-16T04:57:02.781Z,3.20
2019-02-16T04:59:33.727Z,3.30
2019-02-16T05:02:02.574Z,3.20
2019-02-16T05:04:35.329Z,3.20
2019-02-16T05:07:09.043Z,3.10
2019-02-16T05:09:41.753Z,3.10
2019-02-16T05:12:14.361Z,3.20
2019-02-16T05:14:45.411Z,3.20
2019-02-16T05:17:15.474Z,3.10
2019-02-16T05:19:47.369Z,3.20
2019-02-16T05:22:20.763Z,3.20
2019-02-16T05:24:50.255Z,3.20
2019-02-16T05:27:21.298Z,3.20
2019-02-16T05:29:54.168Z,3.20
2019-02-16T05:32:26.611Z,3.30
2019-02-16T05:34:56.858Z,3.30
2019-02-16T05:37:30.615Z,3.20
2019-02-16T05:40:02.235Z,3.30
2019-02-16T05:42:32.532Z,3.30
2019-02-16T05:45:03.851Z,3.40
2019-02-16T05:47:33.423Z,3.30
2019-02-16T05:50:03.576Z,3.30
2019-02-16T05:52:54.037Z,3.30
2019-02-16T05:55:19.363Z,3.20
2019-02-16T05:57:50.124Z,3.30
2019-02-16T06:00:24.057Z,3.40
2019-02-16T06:02:55.080Z,3.30
2019-02-16T06:05:30.697Z,3.40
2019-02-16T06:08:01.566Z,3.30
2019-02-16T06:10:35.090Z,3.40
2019-02-16T06:13:09.771Z,3.40
2019-02-16T06:15:40.580Z,3.40
2019-02-16T06:18:12.077Z,3.40
2019-02-16T06:20:44.694Z,3.40
2019-02-16T06:23:20.307Z,3.40
2019-02-16T06:25:52.109Z,3.40
2019-02-16T06:28:21.156Z,3.40
2019-02-16T06:30:51.140Z,3.40
2019-02-16T06:33:20.290Z,3.40
2019-02-16T06:36:02.991Z,3.40
2019-02-16T06:38:32.607Z,3.40
2019-02-16T06:41:05.587Z,3.40
2019-02-16T06:43:36.844Z,3.40
2019-02-16T06:46:07.848Z,3.40
2019-02-16T06:48:39.191Z,3.50
2019-02-16T06:51:11.749Z,3.50
2019-02-16T06:53:45.165Z,3.50
2019-02-16T06:56:27.853Z,3.40
2019-02-16T06:58:58.601Z,3.50
2019-02-16T07:01:29.433Z,3.50
2019-02-16T07:04:00.333Z,3.50
2019-02-16T07:06:33.654Z,3.50
2019-02-16T07:09:06.342Z,3.50
2019-02-16T07:11:36.821Z,3.60
2019-02-16T07:14:12.431Z,3.60
2019-02-16T07:17:07.266Z,3.60
2019-02-16T07:19:48.213Z,3.60
2019-02-16T07:22:19.287Z,3.60
2019-02-16T07:24:51.172Z,3.70
2019-02-16T07:27:23.190Z,3.70
2019-02-16T07:29:54.327Z,3.80
2019-02-16T07:32:25.944Z,4.00
2019-02-16T07:34:58.124Z,4.00
2019-02-16T07:37:32.137Z,4.10
2019-02-16T07:40:03.887Z,4.10
2019-02-16T07:42:53.943Z,4.10
2019-02-16T07:45:35.594Z,4.20
2019-02-16T07:48:22.532Z,4.20
2019-02-16T07:51:10.156Z,4.20
2019-02-16T07:54:00.636Z,4.30
2019-02-16T07:56:38.886Z,4.50
2019-02-16T07:59:31.889Z,4.50
2019-02-16T08:02:24.139Z,4.60
2019-02-16T08:05:08.398Z,4.60
2019-02-16T08:07:54.794Z,4.70
2019-02-16T08:10:53.781Z,4.70
2019-02-16T08:13:35.999Z,4.80
2019-02-16T08:16:25.164Z,4.90
2019-02-16T08:19:12.841Z,5.00
2019-02-16T08:22:01.909Z,5.20
2019-02-16T08:24:53.857Z,5.20
2019-02-16T08:27:39.122Z,5.10
2019-02-16T08:30:34.224Z,5.20
2019-02-16T08:33:29.488Z,5.30
2019-02-16T08:36:10.067Z,5.30
2019-02-16T08:38:56.201Z,5.40
2019-02-16T08:42:01.181Z,5.50
2019-02-16T08:45:02.646Z,5.60
2019-02-16T08:47:50.040Z,5.70
2019-02-16T08:50:47.543Z,5.80
2019-02-16T08:53:49.340Z,5.90
2019-02-16T08:56:23.560Z,5.80
2019-02-16T08:59:01.209Z,5.90
2019-02-16T09:01:50.219Z,6.10
2019-02-16T09:04:28.952Z,6.00
2019-02-16T09:07:09.205Z,6.00
2019-02-16T09:10:06.390Z,6.00
2019-02-16T09:12:43.173Z,6.00
2019-02-16T09:15:29.919Z,6.20
2019-02-16T09:18:15.904Z,6.20
2019-02-16T09:21:16.288Z,6.10
2019-02-16T09:24:07.617Z,6.10
2019-02-16T09:26:55.464Z,6.00
2019-02-16T09:29:44.306Z,6.20
2019-02-16T09:32:39.253Z,6.10
2019-02-16T09:35:21.933Z,6.10
2019-02-16T09:38:10.520Z,6.10
2019-02-16T09:41:10.061Z,6.20
2019-02-16T09:43:56.984Z,6.20
2019-02-16T09:47:03.845Z,6.20
2019-02-16T09:49:58.142Z,6.20
2019-02-16T09:52:49.332Z,6.30
2019-02-16T09:55:41.536Z,6.40
2019-02-16T09:58:21.385Z,6.50
2019-02-16T10:01:16.229Z,6.60
2019-02-16T10:04:00.720Z,6.60
2019-02-16T10:06:49.617Z,6.60
2019-02-16T10:09:51.307Z,6.50
2019-02-16T10:12:41.513Z,6.50
2019-02-16T10:15:31.141Z,6.50
2019-02-16T10:18:19.508Z,6.60
2019-02-16T10:21:23.552Z,6.90
2019-02-16T10:24:17.850Z,6.90
2019-02-16T10:26:54.818Z,7.00
2019-02-16T10:29:47.197Z,7.10
2019-02-16T10:32:27.293Z,7.10
2019-02-16T10:35:10.443Z,7.20
2019-02-16T10:37:59.749Z,7.20
2019-02-16T10:40:46.617Z,7.20
2019-02-16T10:43:48.633Z,7.20
2019-02-16T10:46:32.465Z,7.10
2019-02-16T10:49:18.489Z,7.10
2019-02-16T10:52:14.793Z,6.90
2019-02-16T10:55:04.433Z,7.00
2019-02-16T10:57:54.250Z,7.00
2019-02-16T11:00:35.085Z,7.00
2019-02-16T11:03:25.587Z,7.10
2019-02-16T11:06:12.009Z,7.10
2019-02-16T11:08:49.183Z,7.10
2019-02-16T11:11:28.590Z,7.10
2019-02-16T11:14:08.769Z,7.00
2019-02-16T11:17:15.777Z,7.10
2019-02-16T11:20:13.445Z,7.00
2019-02-16T11:23:00.982Z,7.10
2019-02-16T11:25:49.872Z,7.10
2019-02-16T11:28:41.521Z,7.10
2019-02-16T11:31:35.589Z,7.00
2019-02-16T11:34:24.784Z,7.10
2019-02-16T11:37:11.953Z,7.10
2019-02-16T11:40:07.434Z,7.00
2019-02-16T11:42:59.377Z,7.00
2019-02-16T11:45:49.317Z,7.10
2019-02-16T11:48:50.621Z,7.20
2019-02-16T11:51:39.338Z,7.20
2019-02-16T11:54:24.015Z,7.20
2019-02-16T11:57:12.028Z,7.00
2019-02-16T11:59:58.375Z,7.00
2019-02-16T12:02:45.849Z,6.90
2019-02-16T12:05:26.706Z,7.00
2019-02-16T12:08:08.611Z,7.00
2019-02-16T12:10:57.829Z,7.00
2019-02-16T12:13:35.803Z,7.00
2019-02-16T12:16:23.880Z,7.10
2019-02-16T12:19:16.166Z,7.10
2019-02-16T12:22:04.708Z,7.00
2019-02-16T12:24:55.858Z,6.90
2019-02-16T12:27:39.292Z,6.90
2019-02-16T12:30:36.744Z,7.00
2019-02-16T12:33:31.053Z,7.00
2019-02-16T12:36:32.089Z,6.90
2019-02-16T12:39:15.889Z,7.00
2019-02-16T12:42:16.223Z,7.00
2019-02-16T12:45:04.353Z,7.00
2019-02-16T12:47:50.517Z,6.90
2019-02-16T12:50:34.817Z,6.90
2019-02-16T12:53:26.383Z,6.90
2019-02-16T12:56:14.297Z,6.80
2019-02-16T12:59:11.577Z,6.70
2019-02-16T13:01:56.945Z,6.60
2019-02-16T13:04:41.433Z,6.60
2019-02-16T13:07:42.194Z,6.50
2019-02-16T13:10:41.903Z,6.40
2019-02-16T13:13:30.943Z,6.30
2019-02-16T13:16:23.324Z,6.30
2019-02-16T13:19:16.857Z,6.20
2019-02-16T13:22:04.042Z,6.20
2019-02-16T13:24:44.322Z,6.10
2019-02-16T13:27:35.410Z,6.10
2019-02-16T13:30:37.286Z,6.10
2019-02-16T13:33:20.022Z,6.10
2019-02-16T13:36:10.603Z,6.10
2019-02-16T13:38:53.006Z,6.10
2019-02-16T13:41:46.663Z,6.10
2019-02-16T13:44:35.255Z,6.10
2019-02-16T13:47:12.781Z,6.20
2019-02-16T13:50:01.477Z,6.30
2019-02-16T13:53:07.458Z,6.20
2019-02-16T13:55:54.201Z,6.20
2019-02-16T13:58:58.254Z,6.30
2019-02-16T14:01:50.016Z,6.40
2019-02-16T14:04:48.834Z,6.30
2019-02-16T14:07:40.265Z,6.30
2019-02-16T14:10:30.410Z,6.30
2019-02-16T14:13:16.201Z,6.30
2019-02-16T14:15:59.349Z,6.10
2019-02-16T14:18:32.812Z,6.20
2019-02-16T14:21:06.318Z,6.30
2019-02-16T14:23:38.302Z,6.30
2019-02-16T14:26:11.811Z,6.40
2019-02-16T14:28:41.709Z,6.30
2019-02-16T14:31:15.328Z,6.30
2019-02-16T14:33:47.356Z,6.30
2019-02-16T14:36:18.517Z,6.20
2019-02-16T14:39:02.677Z,6.20
2019-02-16T14:41:34.194Z,6.20
2019-02-16T14:44:06.781Z,6.10
2019-02-16T14:46:39.436Z,6.00
2019-02-16T14:49:12.237Z,6.00
2019-02-16T14:51:43.980Z,6.00
2019-02-16T14:54:16.445Z,5.90
2019-02-16T14:56:47.691Z,5.80
2019-02-16T14:59:17.311Z,5.80
2019-02-16T15:01:46.742Z,5.80
2019-02-16T15:04:18.325Z,5.80
2019-02-16T15:06:52.744Z,5.70
2019-02-16T15:09:24.094Z,5.70
2019-02-16T15:11:53.289Z,5.60
2019-02-16T15:14:24.705Z,5.60
2019-02-16T15:16:55.940Z,5.60
2019-02-16T15:19:28.580Z,5.60
2019-02-16T15:22:04.455Z,5.50
2019-02-16T15:24:39.273Z,5.50
2019-02-16T15:27:11.138Z,5.50
2019-02-16T15:29:42.062Z,5.40
2019-02-16T15:32:13.429Z,5.40
2019-02-16T15:34:47.460Z,5.40
2019-02-16T15:37:21.767Z,5.40
2019-02-16T15:39:54.561Z,5.40
2019-02-16T15:42:24.665Z,5.30
2019-02-16T15:44:55.214Z,5.30
2019-02-16T15:47:29.134Z,5.30
2019-02-16T15:50:00.188Z,5.30
2019-02-16T15:52:30.975Z,5.20
2019-02-16T15:55:03.911Z,5.30
2019-02-16T15:57:35.814Z,5.20
2019-02-16T16:00:07.755Z,5.20
2019-02-16T16:02:39.422Z,5.30
2019-02-16T16:05:10.925Z,5.30
2019-02-16T16:07:44.136Z,5.20
2019-02-16T16:10:33.761Z,5.20
2019-02-16T16:13:18.582Z,5.20
2019-02-16T16:16:06.261Z,5.10
2019-02-16T16:18:45.650Z,5.10
2019-02-16T16:21:42.165Z,5.00
2019-02-16T16:24:38.824Z,5.00
2019-02-16T16:27:25.587Z,5.00
2019-02-16T16:30:10.957Z,5.00
2019-02-16T16:33:03.585Z,5.00
2019-02-16T16:36:05.178Z,4.90
2019-02-16T16:38:44.140Z,5.00
2019-02-16T16:41:38.961Z,4.90
2019-02-16T16:44:22.410Z,4.90
2019-02-16T16:47:09.934Z,4.90
2019-02-16T16:49:52.137Z,4.90
2019-02-16T16:52:52.213Z,4.90
2019-02-16T16:55:44.226Z,4.90
2019-02-16T16:58:25.713Z,4.90
2019-02-16T17:01:18.993Z,4.90
2019-02-16T17:04:12.481Z,4.80
2019-02-16T17:06:59.415Z,4.90
2019-02-16T17:09:50.036Z,4.80
2019-02-16T17:12:38.005Z,4.80
2019-02-16T17:18:24.049Z,4.70
2019-02-16T17:21:21.711Z,4.70
2019-02-16T17:24:03.457Z,4.70
2019-02-16T17:26:51.869Z,4.60
2019-02-16T17:29:29.161Z,4.60
2019-02-16T17:32:23.287Z,4.50
2019-02-16T17:35:10.796Z,4.50
2019-02-16T17:38:04.126Z,4.50
2019-02-16T17:40:57.844Z,4.40
2019-02-16T17:43:48.045Z,4.40
2019-02-16T17:46:30.984Z,4.40
2019-02-16T17:49:20.727Z,4.30
2019-02-16T17:52:18.694Z,4.20
2019-02-16T17:55:12.082Z,4.10
2019-02-16T17:58:00.981Z,4.10
2019-02-16T18:01:02.787Z,4.10
2019-02-16T18:03:50.467Z,4.00
2019-02-16T18:06:59.060Z,4.10
2019-02-16T18:09:49.101Z,4.00
2019-02-16T18:12:41.060Z,4.00
2019-02-16T18:15:27.975Z,4.00
2019-02-16T18:18:18.737Z,3.90
2019-02-16T18:21:23.158Z,3.90
2019-02-16T18:24:20.305Z,3.90
2019-02-16T18:27:05.320Z,3.90
2019-02-16T18:30:07.112Z,3.90
2019-02-16T18:32:55.002Z,3.90
2019-02-16T18:35:45.845Z,3.80
2019-02-16T18:38:34.941Z,3.80
2019-02-16T18:41:23.739Z,3.80
2019-02-16T18:44:05.285Z,3.80
2019-02-16T18:46:56.900Z,3.70
2019-02-16T18:49:43.396Z,3.60
2019-02-16T18:52:30.916Z,3.60
2019-02-16T18:55:20.955Z,3.60
2019-02-16T18:58:02.273Z,3.60
2019-02-16T19:00:56.264Z,3.60
2019-02-16T19:03:50.046Z,3.50
2019-02-16T19:06:43.516Z,3.50
2019-02-16T19:09:41.928Z,3.50
2019-02-16T19:12:36.969Z,3.40
2019-02-16T19:15:41.140Z,3.40
2019-02-16T19:18:22.581Z,3.40
2019-02-16T19:21:26.149Z,3.30
2019-02-16T19:24:13.857Z,3.30
2019-02-16T19:27:16.966Z,3.30
2019-02-16T19:30:03.188Z,3.20
2019-02-16T19:32:49.697Z,3.20
2019-02-16T19:35:39.277Z,3.10
2019-02-16T19:38:29.899Z,3.10
2019-02-16T19:41:18.353Z,3.10
2019-02-16T19:44:13.022Z,3.10
2019-02-16T19:46:51.181Z,3.10
2019-02-16T19:49:38.002Z,3.10
2019-02-16T19:52:39.845Z,3.20
2019-02-16T19:55:31.663Z,3.20
2019-02-16T19:58:18.595Z,3.10
2019-02-16T20:01:04.982Z,3.00
2019-02-16T20:03:42.477Z,3.00
2019-02-16T20:06:41.446Z,3.00
2019-02-16T20:09:41.035Z,2.90
2019-02-16T20:12:33.498Z,2.90
2019-02-16T20:15:20.138Z,2.80
2019-02-16T20:18:09.990Z,2.80
2019-02-16T20:21:01.541Z,2.80
2019-02-16T20:23:51.749Z,2.80
2019-02-16T20:26:53.404Z,2.80
2019-02-16T20:30:01.097Z,2.70
2019-02-16T20:32:55.805Z,2.70
2019-02-16T20:35:49.330Z,2.60
2019-02-16T20:38:41.456Z,2.60
2019-02-16T20:41:36.938Z,2.60
2019-02-16T20:44:19.632Z,2.60
2019-02-16T20:47:26.896Z,2.60
2019-02-16T20:50:18.401Z,2.60
2019-02-16T20:53:07.706Z,2.60
2019-02-16T20:55:59.841Z,2.60
2019-02-16T20:58:48.770Z,2.60
2019-02-16T21:01:47.996Z,2.50
2019-02-16T21:04:38.572Z,2.60
2019-02-16T21:07:28.334Z,2.60
2019-02-16T21:10:25.594Z,2.70
2019-02-16T21:13:12.321Z,2.80
2019-02-16T21:15:53.066Z,2.70
2019-02-16T21:18:45.765Z,2.70
2019-02-16T21:21:38.826Z,2.70
2019-02-16T21:24:27.786Z,2.60
2019-02-16T21:27:29.985Z,2.60
2019-02-16T21:30:16.808Z,2.60
2019-02-16T21:32:59.996Z,2.60
2019-02-16T21:36:14.421Z,2.60
2019-02-16T21:39:09.121Z,2.50
2019-02-16T21:41:56.640Z,2.40
2019-02-16T21:44:44.219Z,2.50
2019-02-16T21:47:39.172Z,2.40
2019-02-16T21:50:32.400Z,2.40
2019-02-16T21:53:27.998Z,2.40
2019-02-16T21:56:35.101Z,2.40
2019-02-16T21:59:22.421Z,2.40
2019-02-16T22:02:01.199Z,2.40
2019-02-16T22:04:50.554Z,2.50
2019-02-16T22:07:38.879Z,2.50
2019-02-16T22:10:43.429Z,2.50
2019-02-16T22:13:14.425Z,2.50
2019-02-16T22:15:48.520Z,2.50
2019-02-16T22:18:21.932Z,2.50
2019-02-16T22:20:54.009Z,2.40
2019-02-16T22:23:25.759Z,2.50
2019-02-16T22:25:54.789Z,2.50
2019-02-16T22:28:30.906Z,2.40
2019-02-16T22:30:59.715Z,2.50
2019-02-16T22:33:31.422Z,2.40
2019-02-16T22:36:04.872Z,2.30
2019-02-16T22:38:36.787Z,2.30
2019-02-16T22:41:08.246Z,2.30
2019-02-16T22:43:39.633Z,2.20
2019-02-16T22:46:15.390Z,2.30
2019-02-16T22:48:48.620Z,2.20
2019-02-16T22:51:19.354Z,2.20
2019-02-16T22:53:50.862Z,2.20
2019-02-16T22:56:22.354Z,2.10
2019-02-16T22:58:53.768Z,2.10
2019-02-16T23:01:26.803Z,2.10
2019-02-16T23:03:58.278Z,2.10
2019-02-16T23:06:32.775Z,2.00
2019-02-16T23:09:05.648Z,2.00
2019-02-16T23:11:36.557Z,1.90
2019-02-16T23:14:08.317Z,1.90
2019-02-16T23:16:39.348Z,1.90
2019-02-16T23:19:11.174Z,1.90
2019-02-16T23:21:42.318Z,1.80
2019-02-16T23:24:11.398Z,1.80
2019-02-16T23:26:41.378Z,1.80
2019-02-16T23:29:14.807Z,1.80
2019-02-16T23:31:48.217Z,1.80
2019-02-16T23:34:19.877Z,1.70
2019-02-16T23:36:52.377Z,1.70
2019-02-16T23:39:23.844Z,1.70
2019-02-16T23:41:57.464Z,1.60
2019-02-16T23:44:28.860Z,1.60
2019-02-16T23:47:00.793Z,1.50
2019-02-16T23:49:32.214Z,1.40
2019-02-16T23:52:03.305Z,1.40
2019-02-16T23:54:34.592Z,1.30
2019-02-16T23:57:08.309Z,1.40
2019-02-16T23:59:40.045Z,1.30
